Time;durP1;ratioP1;P1;durP2;ratioP2;P2;SDS_P1;SDS_P2;PMS_P1;PMS_P2;Temp;Humidity;BMP_temperature;BMP_pressure;BME280_temperature;BME280_humidity;BME280_pressure;Samples;Min_cycle;Max_cycle;Signal;HPM_P1;HPM_P2
2020/04/22 00:02:08;;;;;;;6.7;4.3;;;;;;;;;;;;;
2020/04/22 00:04:36;;;;;;;8.1;4.3;;;;;;;;;;;;;
2020/04/22 00:06:58;;;;;;;9.1;4;;;;;;;;;;;;;
2020/04/22 00:14:23;;;;;;;8.9;4.1;;;;;;;;;;;;;
2020/04/22 00:17:06;;;;;;;6.3;4;;;;;;;;;;;;;
2020/04/22 00:19:13;;;;;;;6.3;3.8;;;;;;;;;;;;;
2020/04/22 00:21:41;;;;;;;8;4;;;;;;;;;;;;;
2020/04/22 00:24:02;;;;;;;9.2;4.3;;;;;;;;;;;;;
2020/04/22 00:26:38;;;;;;;7.5;4.7;;;;;;;;;;;;;
2020/04/22 00:28:56;;;;;;;6.5;4.3;;;;;;;;;;;;;
2020/04/22 00:33:58;;;;;;;7.9;4.3;;;;;;;;;;;;;
2020/04/22 00:39:16;;;;;;;8.8;4.4;;;;;;;;;;;;;
2020/04/22 00:41:21;;;;;;;5.6;4.1;;;;;;;;;;;;;
2020/04/22 00:45:59;;;;;;;9.1;4.5;;;;;;;;;;;;;
2020/04/22 00:48:19;;;;;;;5.7;4.1;;;;;;;;;;;;;
2020/04/22 00:50:53;;;;;;;10.7;4.7;;;;;;;;;;;;;
2020/04/22 00:53:20;;;;;;;8.7;4.1;;;;;;;;;;;;;
2020/04/22 00:55:35;;;;;;;7.5;4.4;;;;;;;;;;;;;
2020/04/22 00:58:35;;;;;;;7.1;4.2;;;;;;;;;;;;;
2020/04/22 01:02:55;;;;;;;7;4.1;;;;;;;;;;;;;
2020/04/22 01:07:13;;;;;;;8;4.5;;;;;;;;;;;;;
2020/04/22 01:07:44;;;;;;;7.3;4.8;;;;;;;;;;;;;
2020/04/22 01:10:11;;;;;;;6.8;4.3;;;;;;;;;;;;;
2020/04/22 01:12:28;;;;;;;7.7;4.4;;;;;;;;;;;;;
2020/04/22 01:14:54;;;;;;;8.6;4.4;;;;;;;;;;;;;
2020/04/22 01:17:19;;;;;;;8.3;4.6;;;;;;;;;;;;;
2020/04/22 01:19:45;;;;;;;7.6;4.8;;;;;;;;;;;;;
2020/04/22 01:22:10;;;;;;;9.6;4.7;;;;;;;;;;;;;
2020/04/22 01:24:37;;;;;;;7.7;4.1;;;;;;;;;;;;;
2020/04/22 01:27:02;;;;;;;9.1;4.6;;;;;;;;;;;;;
2020/04/22 01:29:29;;;;;;;5.7;4.1;;;;;;;;;;;;;
2020/04/22 01:31:54;;;;;;;5.8;4.2;;;;;;;;;;;;;
2020/04/22 01:34:20;;;;;;;7.1;4.8;;;;;;;;;;;;;
2020/04/22 01:36:46;;;;;;;6.4;4.4;;;;;;;;;;;;;
2020/04/22 01:39:12;;;;;;;8.2;4.3;;;;;;;;;;;;;
2020/04/22 01:41:37;;;;;;;6.3;4.2;;;;;;;;;;;;;
2020/04/22 01:44:03;;;;;;;7.7;4.4;;;;;;;;;;;;;
2020/04/22 01:46:29;;;;;;;6;4.3;;;;;;;;;;;;;
2020/04/22 01:48:55;;;;;;;10.2;4.9;;;;;;;;;;;;;
2020/04/22 01:51:20;;;;;;;5.7;4.2;;;;;;;;;;;;;
2020/04/22 01:53:46;;;;;;;8.2;4.5;;;;;;;;;;;;;
2020/04/22 01:56:11;;;;;;;8.3;4.3;;;;;;;;;;;;;
2020/04/22 01:58:39;;;;;;;5.9;4.3;;;;;;;;;;;;;
2020/04/22 02:01:04;;;;;;;11.3;4.7;;;;;;;;;;;;;
2020/04/22 02:03:30;;;;;;;9;4.8;;;;;;;;;;;;;
2020/04/22 02:05:55;;;;;;;10;4.9;;;;;;;;;;;;;
2020/04/22 02:08:37;;;;;;;9.2;4.6;;;;;;;;;;;;;
2020/04/22 02:10:57;;;;;;;8;4.8;;;;;;;;;;;;;
2020/04/22 02:15:57;;;;;;;7.6;5.2;;;;;;;;;;;;;
2020/04/22 02:18:10;;;;;;;8.6;5.6;;;;;;;;;;;;;
2020/04/22 02:20:38;;;;;;;10.6;5.6;;;;;;;;;;;;;
2020/04/22 02:25:27;;;;;;;8;5.9;;;;;;;;;;;;;
2020/04/22 02:27:52;;;;;;;7.7;5.3;;;;;;;;;;;;;
2020/04/22 02:30:16;;;;;;;14;5.7;;;;;;;;;;;;;
2020/04/22 02:40:01;;;;;;;9;5.1;;;;;;;;;;;;;
2020/04/22 02:42:41;;;;;;;7.3;4.6;;;;;;;;;;;;;
2020/04/22 02:45:02;;;;;;;7;4.9;;;;;;;;;;;;;
2020/04/22 02:47:37;;;;;;;8.2;4.9;;;;;;;;;;;;;
2020/04/22 02:52:50;;;;;;;7.2;4.5;;;;;;;;;;;;;
2020/04/22 02:56:57;;;;;;;9.8;5.1;;;;;;;;;;;;;
2020/04/22 03:01:51;;;;;;;10.5;4.8;;;;;;;;;;;;;
2020/04/22 03:04:21;;;;;;;11.1;5.3;;;;;;;;;;;;;
2020/04/22 03:09:09;;;;;;;9.5;4.8;;;;;;;;;;;;;
2020/04/22 03:11:47;;;;;;;8;4.5;;;;;;;;;;;;;
2020/04/22 03:14:00;;;;;;;7.7;4.5;;;;;;;;;;;;;
2020/04/22 03:21:15;;;;;;;6.8;4.9;;;;;;;;;;;;;
2020/04/22 03:23:44;;;;;;;8.1;4.5;;;;;;;;;;;;;
2020/04/22 03:28:31;;;;;;;8.3;4.8;;;;;;;;;;;;;
2020/04/22 03:31:00;;;;;;;7.2;4.7;;;;;;;;;;;;;
2020/04/22 03:40:43;;;;;;;11.4;5.1;;;;;;;;;;;;;
2020/04/22 03:43:05;;;;;;;12.4;5.3;;;;;;;;;;;;;
2020/04/22 03:45:33;;;;;;;7.5;4.4;;;;;;;;;;;;;
2020/04/22 03:50:28;;;;;;;7.4;4.2;;;;;;;;;;;;;
2020/04/22 03:55:17;;;;;;;11.1;4.6;;;;;;;;;;;;;
2020/04/22 03:57:43;;;;;;;6.3;4.2;;;;;;;;;;;;;
2020/04/22 04:01:19;;;;;;;7.6;4.6;;;;;;;;;;;;;
2020/04/22 04:02:38;;;;;;;12.7;5.3;;;;;;;;;;;;;
2020/04/22 04:05:13;;;;;;;15.2;5.3;;;;;;;;;;;;;
2020/04/22 04:07:26;;;;;;;7.7;4.1;;;;;;;;;;;;;
2020/04/22 04:09:50;;;;;;;9.6;4.5;;;;;;;;;;;;;
2020/04/22 04:12:28;;;;;;;8.2;4.5;;;;;;;;;;;;;
2020/04/22 04:14:44;;;;;;;10.8;4.8;;;;;;;;;;;;;
2020/04/22 04:17:12;;;;;;;9.3;4.9;;;;;;;;;;;;;
2020/04/22 04:19:39;;;;;;;7.7;4.9;;;;;;;;;;;;;
2020/04/22 04:24:26;;;;;;;13.3;4.9;;;;;;;;;;;;;
2020/04/22 04:31:54;;;;;;;7.4;4.4;;;;;;;;;;;;;
2020/04/22 04:34:14;;;;;;;9.6;4.6;;;;;;;;;;;;;
2020/04/22 04:41:31;;;;;;;13.4;4.4;;;;;;;;;;;;;
2020/04/22 04:46:22;;;;;;;14.9;4.6;;;;;;;;;;;;;
2020/04/22 04:48:52;;;;;;;10.9;5.4;;;;;;;;;;;;;
2020/04/22 04:51:34;;;;;;;9.3;5;;;;;;;;;;;;;
2020/04/22 04:53:47;;;;;;;11.1;4.4;;;;;;;;;;;;;
2020/04/22 04:56:09;;;;;;;9.6;4.6;;;;;;;;;;;;;
2020/04/22 04:58:35;;;;;;;11.1;4.3;;;;;;;;;;;;;
2020/04/22 05:01:07;;;;;;;7.1;4.4;;;;;;;;;;;;;
2020/04/22 05:03:25;;;;;;;14.5;5.5;;;;;;;;;;;;;
2020/04/22 05:05:59;;;;;;;11;5.4;;;;;;;;;;;;;
2020/04/22 05:08:20;;;;;;;14.9;5.9;;;;;;;;;;;;;
2020/04/22 05:10:45;;;;;;;8.8;4.6;;;;;;;;;;;;;
2020/04/22 05:13:17;;;;;;;15.5;4.5;;;;;;;;;;;;;
2020/04/22 05:15:42;;;;;;;10.8;4.3;;;;;;;;;;;;;
2020/04/22 05:18:31;;;;;;;10.2;4.2;;;;;;;;;;;;;
2020/04/22 05:20:41;;;;;;;10.4;4;;;;;;;;;;;;;
2020/04/22 05:22:59;;;;;;;12;4.1;;;;;;;;;;;;;
2020/04/22 05:25:24;;;;;;;10.3;4.2;;;;;;;;;;;;;
2020/04/22 05:28:02;;;;;;;13.9;4.7;;;;;;;;;;;;;
2020/04/22 05:30:16;;;;;;;8.8;4.2;;;;;;;;;;;;;
2020/04/22 05:32:51;;;;;;;8.1;3.3;;;;;;;;;;;;;
2020/04/22 05:37:33;;;;;;;6.1;3.1;;;;;;;;;;;;;
2020/04/22 05:40:00;;;;;;;9.3;3.3;;;;;;;;;;;;;
2020/04/22 05:42:32;;;;;;;8.8;3.9;;;;;;;;;;;;;
2020/04/22 05:47:24;;;;;;;7.1;3;;;;;;;;;;;;;
2020/04/22 05:49:59;;;;;;;6.2;2.8;;;;;;;;;;;;;
2020/04/22 05:52:04;;;;;;;8.5;3;;;;;;;;;;;;;
2020/04/22 05:54:31;;;;;;;6.7;3.3;;;;;;;;;;;;;
2020/04/22 05:56:56;;;;;;;10.4;3.3;;;;;;;;;;;;;
2020/04/22 05:59:21;;;;;;;6.9;2.8;;;;;;;;;;;;;
2020/04/22 06:01:43;;;;;;;10.9;3.2;;;;;;;;;;;;;
2020/04/22 06:04:14;;;;;;;29.4;3.9;;;;;;;;;;;;;
2020/04/22 06:09:54;;;;;;;11;2.7;;;;;;;;;;;;;
2020/04/22 06:13:55;;;;;;;7.9;2.7;;;;;;;;;;;;;
2020/04/22 06:16:20;;;;;;;13;2.7;;;;;;;;;;;;;
2020/04/22 06:18:58;;;;;;;6.9;2.1;;;;;;;;;;;;;
2020/04/22 06:21:26;;;;;;;6.8;2.4;;;;;;;;;;;;;
2020/04/22 06:23:44;;;;;;;8.5;2.5;;;;;;;;;;;;;
2020/04/22 06:29:06;;;;;;;12.1;2.9;;;;;;;;;;;;;
2020/04/22 06:31:04;;;;;;;5;1.8;;;;;;;;;;;;;
2020/04/22 06:34:13;;;;;;;11;2.2;;;;;;;;;;;;;
2020/04/22 06:35:58;;;;;;;6.7;2;;;;;;;;;;;;;
2020/04/22 06:40:56;;;;;;;7.3;2.4;;;;;;;;;;;;;
2020/04/22 06:43:15;;;;;;;6.4;2;;;;;;;;;;;;;
2020/04/22 06:45:36;;;;;;;6.9;2.1;;;;;;;;;;;;;
2020/04/22 06:48:04;;;;;;;6.3;1.8;;;;;;;;;;;;;
2020/04/22 06:50:38;;;;;;;6;1.7;;;;;;;;;;;;;
2020/04/22 06:53:36;;;;;;;6;1.8;;;;;;;;;;;;;
2020/04/22 06:55:35;;;;;;;5.2;1.7;;;;;;;;;;;;;
2020/04/22 07:00:10;;;;;;;2.8;1.5;;;;;;;;;;;;;
2020/04/22 07:03:13;;;;;;;3.5;1.5;;;;;;;;;;;;;
2020/04/22 07:07:47;;;;;;;7.5;2;;;;;;;;;;;;;
2020/04/22 07:12:39;;;;;;;7.7;1.8;;;;;;;;;;;;;
2020/04/22 07:14:49;;;;;;;3.3;1.7;;;;;;;;;;;;;
2020/04/22 07:17:13;;;;;;;6.6;1.7;;;;;;;;;;;;;
2020/04/22 07:19:39;;;;;;;3.5;1.5;;;;;;;;;;;;;
2020/04/22 07:22:05;;;;;;;6.6;1.8;;;;;;;;;;;;;
2020/04/22 07:29:20;;;;;;;4.8;1.4;;;;;;;;;;;;;
2020/04/22 07:31:41;;;;;;;4;1.8;;;;;;;;;;;;;
2020/04/22 07:34:17;;;;;;;7.6;1.5;;;;;;;;;;;;;
2020/04/22 07:36:48;;;;;;;9.5;2.7;;;;;;;;;;;;;
2020/04/22 07:44:07;;;;;;;6.1;2.1;;;;;;;;;;;;;
2020/04/22 07:46:23;;;;;;;8.8;2.5;;;;;;;;;;;;;
2020/04/22 07:52:04;;;;;;;4.3;2.2;;;;;;;;;;;;;
2020/04/22 07:54:56;;;;;;;5.9;2.3;;;;;;;;;;;;;
2020/04/22 08:05:59;;;;;;;5.2;2.3;;;;;;;;;;;;;
2020/04/22 08:08:10;;;;;;;5.1;2.7;;;;;;;;;;;;;
2020/04/22 08:15:29;;;;;;;5.6;2.5;;;;;;;;;;;;;
2020/04/22 08:20:39;;;;;;;5.4;2.2;;;;;;;;;;;;;
2020/04/22 08:22:59;;;;;;;6.2;2.5;;;;;;;;;;;;;
2020/04/22 08:25:12;;;;;;;5.6;2.8;;;;;;;;;;;;;
2020/04/22 08:29:59;;;;;;;4.8;2.3;;;;;;;;;;;;;
2020/04/22 08:39:50;;;;;;;8.9;2.6;;;;;;;;;;;;;
2020/04/22 08:47:00;;;;;;;6.1;2.4;;;;;;;;;;;;;
2020/04/22 08:49:35;;;;;;;4.6;2.3;;;;;;;;;;;;;
2020/04/22 08:51:53;;;;;;;5.3;2.3;;;;;;;;;;;;;
2020/04/22 08:56:44;;;;;;;3.9;2.2;;;;;;;;;;;;;
2020/04/22 08:59:23;;;;;;;5.7;2.4;;;;;;;;;;;;;
2020/04/22 09:01:36;;;;;;;4.3;2.2;;;;;;;;;;;;;
2020/04/22 09:04:13;;;;;;;4.5;2.6;;;;;;;;;;;;;
2020/04/22 09:07:47;;;;;;;4.5;2.2;;;;;;;;;;;;;
2020/04/22 09:08:54;;;;;;;4.1;2.4;;;;;;;;;;;;;
2020/04/22 09:19:09;;;;;;;6.4;2.7;;;;;;;;;;;;;
2020/04/22 09:21:07;;;;;;;4.8;2.6;;;;;;;;;;;;;
2020/04/22 09:25:48;;;;;;;7.2;2.9;;;;;;;;;;;;;
2020/04/22 09:30:48;;;;;;;5.4;2.7;;;;;;;;;;;;;
2020/04/22 09:35:32;;;;;;;6.3;2.7;;;;;;;;;;;;;
2020/04/22 09:38:40;;;;;;;7.9;2.7;;;;;;;;;;;;;
2020/04/22 09:40:25;;;;;;;5.2;2.5;;;;;;;;;;;;;
2020/04/22 09:47:49;;;;;;;6.7;2.6;;;;;;;;;;;;;
2020/04/22 09:50:11;;;;;;;4.9;2.7;;;;;;;;;;;;;
2020/04/22 09:52:41;;;;;;;3.8;2.5;;;;;;;;;;;;;
2020/04/22 09:57:21;;;;;;;5.3;2.7;;;;;;;;;;;;;
2020/04/22 10:00:45;;;;;;;6.5;2.7;;;;;;;;;;;;;
2020/04/22 10:02:11;;;;;;;5.9;2.7;;;;;;;;;;;;;
2020/04/22 10:04:38;;;;;;;8.3;3.1;;;;;;;;;;;;;
2020/04/22 10:07:59;;;;;;;3.9;2.6;;;;;;;;;;;;;
2020/04/22 10:12:03;;;;;;;5.2;2.6;;;;;;;;;;;;;
2020/04/22 10:14:22;;;;;;;4.8;2.7;;;;;;;;;;;;;
2020/04/22 10:19:14;;;;;;;6.9;2.4;;;;;;;;;;;;;
2020/04/22 10:22:14;;;;;;;5.6;2.6;;;;;;;;;;;;;
2020/04/22 10:26:32;;;;;;;4.4;2.2;;;;;;;;;;;;;
2020/04/22 10:29:03;;;;;;;4.3;2.5;;;;;;;;;;;;;
2020/04/22 10:31:23;;;;;;;8.2;2.6;;;;;;;;;;;;;
2020/04/22 10:33:53;;;;;;;4.4;2.4;;;;;;;;;;;;;
2020/04/22 10:36:12;;;;;;;5.1;2.4;;;;;;;;;;;;;
2020/04/22 10:41:10;;;;;;;5.1;2.4;;;;;;;;;;;;;
2020/04/22 10:48:29;;;;;;;6.7;2.3;;;;;;;;;;;;;
2020/04/22 10:50:49;;;;;;;4.1;2.2;;;;;;;;;;;;;
2020/04/22 10:53:14;;;;;;;5.4;2.4;;;;;;;;;;;;;
2020/04/22 10:55:41;;;;;;;6.2;2.5;;;;;;;;;;;;;
2020/04/22 10:58:21;;;;;;;4;2.3;;;;;;;;;;;;;
2020/04/22 11:00:48;;;;;;;4.2;2.1;;;;;;;;;;;;;
2020/04/22 11:05:11;;;;;;;7.3;2.5;;;;;;;;;;;;;
2020/04/22 11:07:39;;;;;;;3.9;2.2;;;;;;;;;;;;;
2020/04/22 11:10:04;;;;;;;3.6;2.2;;;;;;;;;;;;;
2020/04/22 11:12:31;;;;;;;16.3;2.4;;;;;;;;;;;;;
2020/04/22 11:14:56;;;;;;;9;2.3;;;;;;;;;;;;;
2020/04/22 11:17:22;;;;;;;4.5;2;;;;;;;;;;;;;
2020/04/22 11:19:47;;;;;;;5.8;2;;;;;;;;;;;;;
2020/04/22 11:22:13;;;;;;;4.6;1.9;;;;;;;;;;;;;
2020/04/22 11:24:39;;;;;;;4.5;1.9;;;;;;;;;;;;;
2020/04/22 11:27:05;;;;;;;3.5;1.9;;;;;;;;;;;;;
2020/04/22 11:29:30;;;;;;;5;2;;;;;;;;;;;;;
2020/04/22 11:31:56;;;;;;;2.7;1.9;;;;;;;;;;;;;
2020/04/22 11:34:21;;;;;;;4.9;2;;;;;;;;;;;;;
2020/04/22 11:36:48;;;;;;;4.5;1.8;;;;;;;;;;;;;
2020/04/22 11:39:13;;;;;;;3.7;2;;;;;;;;;;;;;
2020/04/22 11:41:41;;;;;;;6.1;2.1;;;;;;;;;;;;;
2020/04/22 11:44:06;;;;;;;4.2;2;;;;;;;;;;;;;
2020/04/22 11:46:32;;;;;;;5.2;2.1;;;;;;;;;;;;;
2020/04/22 11:48:57;;;;;;;4.9;1.9;;;;;;;;;;;;;
2020/04/22 11:51:24;;;;;;;5.7;2.1;;;;;;;;;;;;;
2020/04/22 11:53:49;;;;;;;7.2;1.9;;;;;;;;;;;;;
2020/04/22 11:56:15;;;;;;;6.2;1.8;;;;;;;;;;;;;
2020/04/22 11:58:40;;;;;;;4.3;1.8;;;;;;;;;;;;;
2020/04/22 12:01:06;;;;;;;4.3;2.1;;;;;;;;;;;;;
2020/04/22 12:03:31;;;;;;;6.1;2.1;;;;;;;;;;;;;
2020/04/22 12:05:57;;;;;;;4.1;1.9;;;;;;;;;;;;;
2020/04/22 12:08:22;;;;;;;6;1.9;;;;;;;;;;;;;
2020/04/22 12:10:49;;;;;;;5.3;1.6;;;;;;;;;;;;;
2020/04/22 12:13:14;;;;;;;7.2;2.1;;;;;;;;;;;;;
2020/04/22 12:15:40;;;;;;;4.3;2.1;;;;;;;;;;;;;
2020/04/22 12:18:05;;;;;;;4.7;1.9;;;;;;;;;;;;;
2020/04/22 12:20:32;;;;;;;6.4;2.1;;;;;;;;;;;;;
2020/04/22 12:22:56;;;;;;;5.9;1.8;;;;;;;;;;;;;
2020/04/22 12:25:22;;;;;;;5.2;2;;;;;;;;;;;;;
2020/04/22 12:27:48;;;;;;;7.9;2;;;;;;;;;;;;;
2020/04/22 12:30:14;;;;;;;5.6;2;;;;;;;;;;;;;
2020/04/22 12:32:39;;;;;;;8.8;2.1;;;;;;;;;;;;;
2020/04/22 12:35:06;;;;;;;6.5;2.2;;;;;;;;;;;;;
2020/04/22 12:37:31;;;;;;;5.5;1.9;;;;;;;;;;;;;
2020/04/22 12:39:57;;;;;;;5.5;1.9;;;;;;;;;;;;;
2020/04/22 12:42:22;;;;;;;7.8;2.1;;;;;;;;;;;;;
2020/04/22 12:44:48;;;;;;;8.6;1.9;;;;;;;;;;;;;
2020/04/22 12:47:13;;;;;;;7.8;2.5;;;;;;;;;;;;;
2020/04/22 12:49:40;;;;;;;6.9;2.3;;;;;;;;;;;;;
2020/04/22 12:52:05;;;;;;;8;2.3;;;;;;;;;;;;;
2020/04/22 12:54:31;;;;;;;6.3;2.2;;;;;;;;;;;;;
2020/04/22 12:56:56;;;;;;;3.7;2.1;;;;;;;;;;;;;
2020/04/22 12:59:22;;;;;;;6.7;2.4;;;;;;;;;;;;;
2020/04/22 13:01:47;;;;;;;6.2;2.3;;;;;;;;;;;;;
2020/04/22 13:04:14;;;;;;;7.9;2.5;;;;;;;;;;;;;
2020/04/22 13:06:38;;;;;;;5.6;2.2;;;;;;;;;;;;;
2020/04/22 13:09:05;;;;;;;5;2.1;;;;;;;;;;;;;
2020/04/22 13:11:30;;;;;;;5.3;2.2;;;;;;;;;;;;;
2020/04/22 13:13:56;;;;;;;3.7;2.2;;;;;;;;;;;;;
2020/04/22 13:16:21;;;;;;;8.2;2.5;;;;;;;;;;;;;
2020/04/22 13:18:47;;;;;;;6.4;2;;;;;;;;;;;;;
2020/04/22 13:21:12;;;;;;;5.3;2.2;;;;;;;;;;;;;
2020/04/22 13:23:39;;;;;;;7.8;2.6;;;;;;;;;;;;;
2020/04/22 13:26:04;;;;;;;8.1;2.2;;;;;;;;;;;;;
2020/04/22 13:28:30;;;;;;;6.9;2;;;;;;;;;;;;;
2020/04/22 13:30:55;;;;;;;7;2.1;;;;;;;;;;;;;
2020/04/22 13:33:21;;;;;;;7.5;2.5;;;;;;;;;;;;;
2020/04/22 13:35:47;;;;;;;7.7;2.2;;;;;;;;;;;;;
2020/04/22 13:38:13;;;;;;;6.5;2.3;;;;;;;;;;;;;
2020/04/22 13:40:38;;;;;;;6.1;2.1;;;;;;;;;;;;;
2020/04/22 13:43:04;;;;;;;5.8;1.9;;;;;;;;;;;;;
2020/04/22 13:45:29;;;;;;;8.8;2.2;;;;;;;;;;;;;
2020/04/22 13:47:55;;;;;;;6.6;2.1;;;;;;;;;;;;;
2020/04/22 13:50:20;;;;;;;5.2;2.3;;;;;;;;;;;;;
2020/04/22 13:52:47;;;;;;;5.3;2.1;;;;;;;;;;;;;
2020/04/22 13:55:12;;;;;;;5.9;2;;;;;;;;;;;;;
2020/04/22 13:57:38;;;;;;;8.5;2.1;;;;;;;;;;;;;
2020/04/22 14:00:03;;;;;;;4.6;2.2;;;;;;;;;;;;;
2020/04/22 14:02:30;;;;;;;6.2;2;;;;;;;;;;;;;
2020/04/22 14:04:55;;;;;;;4.3;2;;;;;;;;;;;;;
2020/04/22 14:07:22;;;;;;;7.4;2;;;;;;;;;;;;;
2020/04/22 14:09:47;;;;;;;5.3;2;;;;;;;;;;;;;
2020/04/22 14:12:13;;;;;;;6.8;2.1;;;;;;;;;;;;;
2020/04/22 14:14:38;;;;;;;7;2.2;;;;;;;;;;;;;
2020/04/22 14:17:04;;;;;;;14.5;2.8;;;;;;;;;;;;;
2020/04/22 14:19:30;;;;;;;5.6;2.2;;;;;;;;;;;;;
2020/04/22 14:21:56;;;;;;;4.4;1.7;;;;;;;;;;;;;
2020/04/22 14:24:21;;;;;;;5.5;2;;;;;;;;;;;;;
2020/04/22 14:26:47;;;;;;;6;1.7;;;;;;;;;;;;;
2020/04/22 14:29:12;;;;;;;4.1;1.9;;;;;;;;;;;;;
2020/04/22 14:31:38;;;;;;;5.4;2;;;;;;;;;;;;;
2020/04/22 14:34:03;;;;;;;4.7;1.9;;;;;;;;;;;;;
2020/04/22 14:36:30;;;;;;;13;2.3;;;;;;;;;;;;;
2020/04/22 14:38:55;;;;;;;14.5;2.5;;;;;;;;;;;;;
2020/04/22 14:41:21;;;;;;;11.8;2.1;;;;;;;;;;;;;
2020/04/22 14:43:47;;;;;;;5.7;2;;;;;;;;;;;;;
2020/04/22 14:46:12;;;;;;;10.6;1.8;;;;;;;;;;;;;
2020/04/22 14:48:37;;;;;;;6.5;1.9;;;;;;;;;;;;;
2020/04/22 14:51:04;;;;;;;37.7;4.5;;;;;;;;;;;;;
2020/04/22 14:53:29;;;;;;;7.2;2.1;;;;;;;;;;;;;
2020/04/22 14:55:55;;;;;;;15.5;2.5;;;;;;;;;;;;;
2020/04/22 14:58:20;;;;;;;6.8;1.9;;;;;;;;;;;;;
2020/04/22 15:00:46;;;;;;;10.4;2.6;;;;;;;;;;;;;
2020/04/22 15:03:12;;;;;;;6.3;2.2;;;;;;;;;;;;;
2020/04/22 15:05:38;;;;;;;5.1;2.1;;;;;;;;;;;;;
2020/04/22 15:08:03;;;;;;;5.4;1.6;;;;;;;;;;;;;
2020/04/22 15:10:29;;;;;;;7.2;2.1;;;;;;;;;;;;;
2020/04/22 15:12:54;;;;;;;4.3;1.7;;;;;;;;;;;;;
2020/04/22 15:15:20;;;;;;;7.7;1.7;;;;;;;;;;;;;
2020/04/22 15:17:45;;;;;;;6.3;1.8;;;;;;;;;;;;;
2020/04/22 15:20:12;;;;;;;4.9;2;;;;;;;;;;;;;
2020/04/22 15:22:37;;;;;;;4.3;2;;;;;;;;;;;;;
2020/04/22 15:25:03;;;;;;;5.4;1.9;;;;;;;;;;;;;
2020/04/22 15:27:29;;;;;;;3;1.5;;;;;;;;;;;;;
2020/04/22 15:29:55;;;;;;;5.4;2;;;;;;;;;;;;;
2020/04/22 15:32:20;;;;;;;10.2;2;;;;;;;;;;;;;
2020/04/22 15:34:46;;;;;;;4.4;1.7;;;;;;;;;;;;;
2020/04/22 15:37:11;;;;;;;5.6;1.6;;;;;;;;;;;;;
2020/04/22 15:39:37;;;;;;;5.4;1.8;;;;;;;;;;;;;
2020/04/22 15:42:02;;;;;;;8.7;2.4;;;;;;;;;;;;;
2020/04/22 15:44:29;;;;;;;7.1;1.9;;;;;;;;;;;;;
2020/04/22 15:46:54;;;;;;;5.5;2.2;;;;;;;;;;;;;
2020/04/22 15:49:20;;;;;;;5.9;2;;;;;;;;;;;;;
2020/04/22 15:51:45;;;;;;;5.7;2.2;;;;;;;;;;;;;
2020/04/22 15:54:13;;;;;;;5.2;2.2;;;;;;;;;;;;;
2020/04/22 15:56:37;;;;;;;11.8;2.7;;;;;;;;;;;;;
2020/04/22 15:59:03;;;;;;;4.3;1.8;;;;;;;;;;;;;
2020/04/22 16:01:28;;;;;;;5.3;1.9;;;;;;;;;;;;;
2020/04/22 16:03:55;;;;;;;6.7;1.8;;;;;;;;;;;;;
2020/04/22 16:06:20;;;;;;;4.9;2;;;;;;;;;;;;;
2020/04/22 16:08:46;;;;;;;4.7;2;;;;;;;;;;;;;
2020/04/22 16:11:11;;;;;;;5.9;2;;;;;;;;;;;;;
2020/04/22 16:13:37;;;;;;;3.8;1.8;;;;;;;;;;;;;
2020/04/22 16:16:03;;;;;;;2.8;1.8;;;;;;;;;;;;;
2020/04/22 16:18:29;;;;;;;3.2;2;;;;;;;;;;;;;
2020/04/22 16:20:54;;;;;;;5.9;1.9;;;;;;;;;;;;;
2020/04/22 16:23:20;;;;;;;6.6;2.2;;;;;;;;;;;;;
2020/04/22 16:25:45;;;;;;;5.1;2.1;;;;;;;;;;;;;
2020/04/22 16:28:11;;;;;;;4.2;2;;;;;;;;;;;;;
2020/04/22 16:30:36;;;;;;;4;1.8;;;;;;;;;;;;;
2020/04/22 16:33:03;;;;;;;8.2;2;;;;;;;;;;;;;
2020/04/22 16:35:28;;;;;;;8.1;1.9;;;;;;;;;;;;;
2020/04/22 16:37:54;;;;;;;6.5;2.2;;;;;;;;;;;;;
2020/04/22 16:40:19;;;;;;;3.9;1.7;;;;;;;;;;;;;
2020/04/22 16:42:45;;;;;;;5.1;2;;;;;;;;;;;;;
2020/04/22 16:45:11;;;;;;;6.6;2;;;;;;;;;;;;;
2020/04/22 16:47:52;;;;;;;7.3;1.9;;;;;;;;;;;;;
2020/04/22 16:50:01;;;;;;;7.1;1.9;;;;;;;;;;;;;
2020/04/22 16:52:27;;;;;;;5.6;2.1;;;;;;;;;;;;;
2020/04/22 16:54:52;;;;;;;8.1;2.4;;;;;;;;;;;;;
2020/04/22 16:57:17;;;;;;;4.8;2;;;;;;;;;;;;;
2020/04/22 16:59:42;;;;;;;5.8;2;;;;;;;;;;;;;
2020/04/22 17:02:07;;;;;;;11.5;2.3;;;;;;;;;;;;;
2020/04/22 17:04:34;;;;;;;5.5;2.1;;;;;;;;;;;;;
2020/04/22 17:06:59;;;;;;;5.2;1.9;;;;;;;;;;;;;
2020/04/22 17:09:25;;;;;;;4.9;1.9;;;;;;;;;;;;;
2020/04/22 17:11:50;;;;;;;5.1;2;;;;;;;;;;;;;
2020/04/22 17:14:16;;;;;;;5.6;2.1;;;;;;;;;;;;;
2020/04/22 17:16:41;;;;;;;6.8;1.9;;;;;;;;;;;;;
2020/04/22 17:19:07;;;;;;;6.1;2.2;;;;;;;;;;;;;
2020/04/22 17:21:33;;;;;;;4.3;1.9;;;;;;;;;;;;;
2020/04/22 17:23:58;;;;;;;6.4;2.1;;;;;;;;;;;;;
2020/04/22 17:26:23;;;;;;;5.4;2.1;;;;;;;;;;;;;
2020/04/22 17:28:51;;;;;;;7.2;2;;;;;;;;;;;;;
2020/04/22 17:31:17;;;;;;;9.4;4.4;;;;;;;;;;;;;
2020/04/22 17:33:42;;;;;;;7.9;3.4;;;;;;;;;;;;;
2020/04/22 17:36:07;;;;;;;7.3;3.5;;;;;;;;;;;;;
2020/04/22 17:38:35;;;;;;;8;2.8;;;;;;;;;;;;;
2020/04/22 17:41:00;;;;;;;8.5;3.7;;;;;;;;;;;;;
2020/04/22 17:43:25;;;;;;;6.1;3;;;;;;;;;;;;;
2020/04/22 17:45:50;;;;;;;6.4;2.9;;;;;;;;;;;;;
2020/04/22 17:48:16;;;;;;;7.3;2.7;;;;;;;;;;;;;
2020/04/22 17:50:41;;;;;;;6.2;3.2;;;;;;;;;;;;;
2020/04/22 17:53:07;;;;;;;5.8;2.9;;;;;;;;;;;;;
2020/04/22 17:55:32;;;;;;;7.4;2.8;;;;;;;;;;;;;
2020/04/22 17:57:59;;;;;;;4.8;2.8;;;;;;;;;;;;;
2020/04/22 18:00:24;;;;;;;6.7;2.4;;;;;;;;;;;;;
2020/04/22 18:05:18;;;;;;;5.2;2.1;;;;;;;;;;;;;
2020/04/22 18:07:41;;;;;;;8.4;2.6;;;;;;;;;;;;;
2020/04/22 18:10:06;;;;;;;7;2.3;;;;;;;;;;;;;
2020/04/22 18:15:14;;;;;;;4.4;2.1;;;;;;;;;;;;;
2020/04/22 18:17:22;;;;;;;5.8;2.2;;;;;;;;;;;;;
2020/04/22 18:19:46;;;;;;;4.9;2.2;;;;;;;;;;;;;
2020/04/22 18:22:12;;;;;;;5.2;2.6;;;;;;;;;;;;;
2020/04/22 18:24:37;;;;;;;8.1;2.4;;;;;;;;;;;;;
2020/04/22 18:27:02;;;;;;;4.4;2.4;;;;;;;;;;;;;
2020/04/22 18:29:27;;;;;;;4.8;2.5;;;;;;;;;;;;;
2020/04/22 18:31:54;;;;;;;4.7;2.2;;;;;;;;;;;;;
2020/04/22 18:34:18;;;;;;;7.6;2.3;;;;;;;;;;;;;
2020/04/22 18:36:44;;;;;;;5.3;2.6;;;;;;;;;;;;;
2020/04/22 18:39:09;;;;;;;6.9;2.1;;;;;;;;;;;;;
2020/04/22 18:41:34;;;;;;;4.6;2.3;;;;;;;;;;;;;
2020/04/22 18:43:59;;;;;;;5.1;2.4;;;;;;;;;;;;;
2020/04/22 18:46:28;;;;;;;6.9;2.4;;;;;;;;;;;;;
2020/04/22 18:48:53;;;;;;;7;2.5;;;;;;;;;;;;;
2020/04/22 18:51:18;;;;;;;3.8;2.5;;;;;;;;;;;;;
2020/04/22 18:53:43;;;;;;;5.1;2.3;;;;;;;;;;;;;
2020/04/22 18:56:08;;;;;;;6.3;2.8;;;;;;;;;;;;;
2020/04/22 18:58:33;;;;;;;6.8;2.7;;;;;;;;;;;;;
2020/04/22 19:01:03;;;;;;;3.7;2.2;;;;;;;;;;;;;
2020/04/22 19:03:28;;;;;;;6.9;2.6;;;;;;;;;;;;;
2020/04/22 19:05:53;;;;;;;5.6;2.5;;;;;;;;;;;;;
2020/04/22 19:08:18;;;;;;;10.1;3;;;;;;;;;;;;;
2020/04/22 19:10:43;;;;;;;7.3;2.6;;;;;;;;;;;;;
2020/04/22 19:13:08;;;;;;;6.5;2.9;;;;;;;;;;;;;
2020/04/22 19:15:37;;;;;;;6.8;2.8;;;;;;;;;;;;;
2020/04/22 19:18:02;;;;;;;5.3;3;;;;;;;;;;;;;
2020/04/22 19:20:27;;;;;;;5.6;2.9;;;;;;;;;;;;;
2020/04/22 19:22:52;;;;;;;8.8;3.4;;;;;;;;;;;;;
2020/04/22 19:25:18;;;;;;;5.3;3.1;;;;;;;;;;;;;
2020/04/22 19:27:43;;;;;;;5.4;3.1;;;;;;;;;;;;;
2020/04/22 19:30:08;;;;;;;5.7;3.1;;;;;;;;;;;;;
2020/04/22 19:32:33;;;;;;;15.7;3.7;;;;;;;;;;;;;
2020/04/22 19:34:59;;;;;;;13.5;3.3;;;;;;;;;;;;;
2020/04/22 19:37:24;;;;;;;6.6;3.2;;;;;;;;;;;;;
2020/04/22 19:39:50;;;;;;;8.3;3.4;;;;;;;;;;;;;
2020/04/22 19:42:15;;;;;;;8.7;3.5;;;;;;;;;;;;;
2020/04/22 19:44:41;;;;;;;7.3;3.7;;;;;;;;;;;;;
2020/04/22 19:47:06;;;;;;;7.5;3.4;;;;;;;;;;;;;
2020/04/22 19:49:31;;;;;;;14.7;9.6;;;;;;;;;;;;;
2020/04/22 19:51:56;;;;;;;22.6;11.8;;;;;;;;;;;;;
2020/04/22 19:54:21;;;;;;;13.6;4.2;;;;;;;;;;;;;
2020/04/22 19:56:46;;;;;;;8.3;4.2;;;;;;;;;;;;;
2020/04/22 19:59:12;;;;;;;36.6;22.4;;;;;;;;;;;;;
2020/04/22 20:01:39;;;;;;;10.9;5.7;;;;;;;;;;;;;
2020/04/22 20:04:04;;;;;;;5.6;3.5;;;;;;;;;;;;;
2020/04/22 20:06:29;;;;;;;7.3;3.4;;;;;;;;;;;;;
2020/04/22 20:08:54;;;;;;;6.8;3.7;;;;;;;;;;;;;
2020/04/22 20:11:20;;;;;;;12.6;3.7;;;;;;;;;;;;;
2020/04/22 20:13:45;;;;;;;9.4;3.1;;;;;;;;;;;;;
2020/04/22 20:16:11;;;;;;;8.9;3.5;;;;;;;;;;;;;
2020/04/22 20:18:36;;;;;;;6.9;3.2;;;;;;;;;;;;;
2020/04/22 20:21:01;;;;;;;14.3;4.3;;;;;;;;;;;;;
2020/04/22 20:23:27;;;;;;;10.6;5;;;;;;;;;;;;;
2020/04/22 20:25:52;;;;;;;8.9;5.3;;;;;;;;;;;;;
2020/04/22 20:28:17;;;;;;;9.9;5;;;;;;;;;;;;;
2020/04/22 20:30:42;;;;;;;7.8;5.2;;;;;;;;;;;;;
2020/04/22 20:33:07;;;;;;;7.4;4.2;;;;;;;;;;;;;
2020/04/22 20:35:43;;;;;;;9.2;4.1;;;;;;;;;;;;;
2020/04/22 20:38:19;;;;;;;8.5;4;;;;;;;;;;;;;
2020/04/22 20:40:23;;;;;;;8.1;4.1;;;;;;;;;;;;;
2020/04/22 20:42:48;;;;;;;6;4;;;;;;;;;;;;;
2020/04/22 20:45:13;;;;;;;9.5;4.1;;;;;;;;;;;;;
2020/04/22 20:47:38;;;;;;;9.7;3.7;;;;;;;;;;;;;
2020/04/22 20:50:03;;;;;;;6.1;4;;;;;;;;;;;;;
2020/04/22 20:52:28;;;;;;;8.7;3.9;;;;;;;;;;;;;
2020/04/22 20:54:54;;;;;;;8.8;3.7;;;;;;;;;;;;;
2020/04/22 20:57:19;;;;;;;8.7;4.1;;;;;;;;;;;;;
2020/04/22 20:59:44;;;;;;;9.1;4;;;;;;;;;;;;;
2020/04/22 21:02:09;;;;;;;6.3;3.9;;;;;;;;;;;;;
2020/04/22 21:04:34;;;;;;;9.4;4.9;;;;;;;;;;;;;
2020/04/22 21:06:59;;;;;;;7.5;4.4;;;;;;;;;;;;;
2020/04/22 21:09:25;;;;;;;10.2;4.5;;;;;;;;;;;;;
2020/04/22 21:11:50;;;;;;;5.8;4;;;;;;;;;;;;;
2020/04/22 21:14:15;;;;;;;9.1;4.7;;;;;;;;;;;;;
2020/04/22 21:16:40;;;;;;;9.5;4.8;;;;;;;;;;;;;
2020/04/22 21:19:05;;;;;;;7.4;4.1;;;;;;;;;;;;;
2020/04/22 21:21:30;;;;;;;8.3;4.3;;;;;;;;;;;;;
2020/04/22 21:23:55;;;;;;;11.7;4.9;;;;;;;;;;;;;
2020/04/22 21:26:20;;;;;;;9.4;4.2;;;;;;;;;;;;;
2020/04/22 21:28:45;;;;;;;8.8;3.9;;;;;;;;;;;;;
2020/04/22 21:31:11;;;;;;;11;4.1;;;;;;;;;;;;;
2020/04/22 21:33:36;;;;;;;9.1;3.9;;;;;;;;;;;;;
2020/04/22 21:36:01;;;;;;;12.3;4.5;;;;;;;;;;;;;
2020/04/22 21:38:26;;;;;;;8.1;4.1;;;;;;;;;;;;;
2020/04/22 21:40:52;;;;;;;8.8;4;;;;;;;;;;;;;
2020/04/22 21:43:17;;;;;;;8.3;3.9;;;;;;;;;;;;;
2020/04/22 21:45:42;;;;;;;8.3;4;;;;;;;;;;;;;
2020/04/22 21:48:07;;;;;;;7.5;4.5;;;;;;;;;;;;;
2020/04/22 21:50:32;;;;;;;8.2;4.6;;;;;;;;;;;;;
2020/04/22 21:53:01;;;;;;;9.3;4.6;;;;;;;;;;;;;
2020/04/22 21:55:22;;;;;;;6.2;4.3;;;;;;;;;;;;;
2020/04/22 21:57:47;;;;;;;7.1;4.4;;;;;;;;;;;;;
2020/04/22 22:00:13;;;;;;;6.9;4;;;;;;;;;;;;;
2020/04/22 22:02:38;;;;;;;7.8;4.2;;;;;;;;;;;;;
2020/04/22 22:05:03;;;;;;;7.6;4;;;;;;;;;;;;;
2020/04/22 22:07:28;;;;;;;6;3.5;;;;;;;;;;;;;
2020/04/22 22:09:54;;;;;;;6.7;3.3;;;;;;;;;;;;;
2020/04/22 22:12:19;;;;;;;6.8;3.4;;;;;;;;;;;;;
2020/04/22 22:14:44;;;;;;;6.9;3.6;;;;;;;;;;;;;
2020/04/22 22:17:09;;;;;;;7.3;3.9;;;;;;;;;;;;;
2020/04/22 22:19:34;;;;;;;9.3;4.1;;;;;;;;;;;;;
2020/04/22 22:22:00;;;;;;;10.1;4.6;;;;;;;;;;;;;
2020/04/22 22:24:25;;;;;;;9.2;4.2;;;;;;;;;;;;;
2020/04/22 22:26:50;;;;;;;10;4.4;;;;;;;;;;;;;
2020/04/22 22:29:15;;;;;;;9.5;4.4;;;;;;;;;;;;;
2020/04/22 22:31:40;;;;;;;7.7;4;;;;;;;;;;;;;
2020/04/22 22:34:05;;;;;;;7;3.9;;;;;;;;;;;;;
2020/04/22 22:36:30;;;;;;;6.1;3.6;;;;;;;;;;;;;
2020/04/22 22:38:55;;;;;;;8.8;3.9;;;;;;;;;;;;;
2020/04/22 22:41:20;;;;;;;7.9;3.8;;;;;;;;;;;;;
2020/04/22 22:43:46;;;;;;;7.8;3.6;;;;;;;;;;;;;
2020/04/22 22:46:11;;;;;;;6.4;3.3;;;;;;;;;;;;;
2020/04/22 22:48:36;;;;;;;6.6;3.8;;;;;;;;;;;;;
2020/04/22 22:51:01;;;;;;;5.2;3.3;;;;;;;;;;;;;
2020/04/22 22:53:26;;;;;;;5;3.4;;;;;;;;;;;;;
2020/04/22 22:55:51;;;;;;;6.1;3.8;;;;;;;;;;;;;
2020/04/22 22:58:16;;;;;;;6.7;3.7;;;;;;;;;;;;;
2020/04/22 23:00:41;;;;;;;7.1;3.6;;;;;;;;;;;;;
2020/04/22 23:03:06;;;;;;;5.6;3.7;;;;;;;;;;;;;
2020/04/22 23:05:31;;;;;;;6.3;3.7;;;;;;;;;;;;;
2020/04/22 23:07:57;;;;;;;4.8;3.7;;;;;;;;;;;;;
2020/04/22 23:10:22;;;;;;;6.4;3.6;;;;;;;;;;;;;
2020/04/22 23:12:47;;;;;;;8.3;4.1;;;;;;;;;;;;;
2020/04/22 23:15:12;;;;;;;6.9;4;;;;;;;;;;;;;
2020/04/22 23:17:37;;;;;;;6;3.7;;;;;;;;;;;;;
2020/04/22 23:20:02;;;;;;;9.6;3.7;;;;;;;;;;;;;
2020/04/22 23:22:27;;;;;;;7.9;3.6;;;;;;;;;;;;;
2020/04/22 23:24:53;;;;;;;5.2;3.5;;;;;;;;;;;;;
2020/04/22 23:27:18;;;;;;;7.5;3.5;;;;;;;;;;;;;
2020/04/22 23:29:44;;;;;;;7.4;3.4;;;;;;;;;;;;;
2020/04/22 23:32:09;;;;;;;5.9;3.6;;;;;;;;;;;;;
2020/04/22 23:34:34;;;;;;;5.6;3.8;;;;;;;;;;;;;
2020/04/22 23:36:59;;;;;;;5;3.3;;;;;;;;;;;;;